sensor_id;sensor_type;location;lat;lon;timestamp;P1;durP1;ratioP1;P2;durP2;ratioP2
12306;SDS011;6216;51.146;7.008;2022-07-29T00:02:11;4.73;;;1.43;;
12306;SDS011;6216;51.146;7.008;2022-07-29T00:04:40;1.97;;;1.30;;
12306;SDS011;6216;51.146;7.008;2022-07-29T00:07:08;3.60;;;1.40;;
12306;SDS011;6216;51.146;7.008;2022-07-29T00:09:38;3.03;;;1.20;;
12306;SDS011;6216;51.146;7.008;2022-07-29T00:12:17;2.27;;;1.23;;
12306;SDS011;6216;51.146;7.008;2022-07-29T00:14:51;5.00;;;1.20;;
12306;SDS011;6216;51.146;7.008;2022-07-29T00:17:19;2.43;;;1.40;;
12306;SDS011;6216;51.146;7.008;2022-07-29T00:19:49;2.40;;;1.07;;
12306;SDS011;6216;51.146;7.008;2022-07-29T00:22:17;3.07;;;1.20;;
12306;SDS011;6216;51.146;7.008;2022-07-29T00:24:46;3.17;;;1.17;;
12306;SDS011;6216;51.146;7.008;2022-07-29T00:27:14;5.57;;;1.07;;
12306;SDS011;6216;51.146;7.008;2022-07-29T00:29:42;4.33;;;1.07;;
12306;SDS011;6216;51.146;7.008;2022-07-29T00:32:09;3.17;;;1.30;;
12306;SDS011;6216;51.146;7.008;2022-07-29T00:34:37;2.40;;;1.27;;
12306;SDS011;6216;51.146;7.008;2022-07-29T00:37:24;5.27;;;1.50;;
12306;SDS011;6216;51.146;7.008;2022-07-29T00:39:52;3.53;;;1.20;;
12306;SDS011;6216;51.146;7.008;2022-07-29T00:42:20;5.57;;;1.30;;
12306;SDS011;6216;51.146;7.008;2022-07-29T00:44:48;4.43;;;1.20;;
12306;SDS011;6216;51.146;7.008;2022-07-29T00:47:15;3.80;;;1.67;;
12306;SDS011;6216;51.146;7.008;2022-07-29T00:49:43;2.10;;;1.50;;
12306;SDS011;6216;51.146;7.008;2022-07-29T00:52:11;3.30;;;1.20;;
12306;SDS011;6216;51.146;7.008;2022-07-29T00:54:43;2.47;;;1.03;;
12306;SDS011;6216;51.146;7.008;2022-07-29T00:57:11;2.47;;;1.00;;
12306;SDS011;6216;51.146;7.008;2022-07-29T00:59:39;3.37;;;1.30;;
12306;SDS011;6216;51.146;7.008;2022-07-29T01:02:07;4.17;;;1.50;;
12306;SDS011;6216;51.146;7.008;2022-07-29T01:04:35;5.50;;;1.27;;
12306;SDS011;6216;51.146;7.008;2022-07-29T01:07:03;3.60;;;1.20;;
12306;SDS011;6216;51.146;7.008;2022-07-29T01:09:32;2.73;;;1.00;;
12306;SDS011;6216;51.146;7.008;2022-07-29T01:12:14;5.13;;;1.03;;
12306;SDS011;6216;51.146;7.008;2022-07-29T01:14:44;5.73;;;1.60;;
12306;SDS011;6216;51.146;7.008;2022-07-29T01:17:14;2.90;;;1.07;;
12306;SDS011;6216;51.146;7.008;2022-07-29T01:19:51;4.37;;;1.53;;
12306;SDS011;6216;51.146;7.008;2022-07-29T01:22:37;5.13;;;1.20;;
12306;SDS011;6216;51.146;7.008;2022-07-29T01:25:24;2.73;;;1.27;;
12306;SDS011;6216;51.146;7.008;2022-07-29T01:28:12;4.63;;;1.40;;
12306;SDS011;6216;51.146;7.008;2022-07-29T01:30:58;4.83;;;1.43;;
12306;SDS011;6216;51.146;7.008;2022-07-29T01:33:28;2.47;;;1.23;;
12306;SDS011;6216;51.146;7.008;2022-07-29T01:36:20;5.50;;;1.37;;
12306;SDS011;6216;51.146;7.008;2022-07-29T01:38:56;2.87;;;0.97;;
12306;SDS011;6216;51.146;7.008;2022-07-29T01:41:30;4.43;;;1.37;;
12306;SDS011;6216;51.146;7.008;2022-07-29T01:44:04;4.13;;;1.40;;
12306;SDS011;6216;51.146;7.008;2022-07-29T01:46:40;4.57;;;1.70;;
12306;SDS011;6216;51.146;7.008;2022-07-29T01:49:13;2.30;;;1.13;;
12306;SDS011;6216;51.146;7.008;2022-07-29T01:51:46;2.13;;;1.10;;
12306;SDS011;6216;51.146;7.008;2022-07-29T01:54:18;2.33;;;1.10;;
12306;SDS011;6216;51.146;7.008;2022-07-29T01:56:51;6.40;;;1.30;;
12306;SDS011;6216;51.146;7.008;2022-07-29T01:59:23;2.97;;;1.27;;
12306;SDS011;6216;51.146;7.008;2022-07-29T02:01:54;1.90;;;1.10;;
12306;SDS011;6216;51.146;7.008;2022-07-29T02:04:24;3.57;;;1.37;;
12306;SDS011;6216;51.146;7.008;2022-07-29T02:06:57;4.77;;;1.53;;
12306;SDS011;6216;51.146;7.008;2022-07-29T02:09:28;2.37;;;1.17;;
12306;SDS011;6216;51.146;7.008;2022-07-29T02:11:59;3.63;;;1.40;;
12306;SDS011;6216;51.146;7.008;2022-07-29T02:14:30;2.17;;;1.30;;
12306;SDS011;6216;51.146;7.008;2022-07-29T02:17:02;4.33;;;1.57;;
12306;SDS011;6216;51.146;7.008;2022-07-29T02:19:30;2.80;;;1.20;;
12306;SDS011;6216;51.146;7.008;2022-07-29T02:22:00;3.30;;;1.50;;
12306;SDS011;6216;51.146;7.008;2022-07-29T02:24:28;3.23;;;1.23;;
12306;SDS011;6216;51.146;7.008;2022-07-29T02:26:58;2.90;;;1.20;;
12306;SDS011;6216;51.146;7.008;2022-07-29T02:29:27;4.93;;;1.47;;
12306;SDS011;6216;51.146;7.008;2022-07-29T02:31:57;4.17;;;1.50;;
12306;SDS011;6216;51.146;7.008;2022-07-29T02:34:28;1.60;;;1.10;;
12306;SDS011;6216;51.146;7.008;2022-07-29T02:36:57;1.93;;;1.33;;
12306;SDS011;6216;51.146;7.008;2022-07-29T02:39:26;2.10;;;1.40;;
12306;SDS011;6216;51.146;7.008;2022-07-29T02:41:57;5.70;;;1.70;;
12306;SDS011;6216;51.146;7.008;2022-07-29T02:44:30;3.20;;;1.40;;
12306;SDS011;6216;51.146;7.008;2022-07-29T02:47:02;5.47;;;1.10;;
12306;SDS011;6216;51.146;7.008;2022-07-29T02:49:35;4.20;;;1.23;;
12306;SDS011;6216;51.146;7.008;2022-07-29T02:52:05;4.20;;;1.40;;
12306;SDS011;6216;51.146;7.008;2022-07-29T02:54:37;2.47;;;1.37;;
12306;SDS011;6216;51.146;7.008;2022-07-29T02:57:09;6.70;;;1.40;;
12306;SDS011;6216;51.146;7.008;2022-07-29T02:59:43;2.47;;;1.27;;
12306;SDS011;6216;51.146;7.008;2022-07-29T03:02:14;4.73;;;1.33;;
12306;SDS011;6216;51.146;7.008;2022-07-29T03:04:44;4.90;;;1.70;;
12306;SDS011;6216;51.146;7.008;2022-07-29T03:07:15;4.20;;;1.30;;
12306;SDS011;6216;51.146;7.008;2022-07-29T03:09:46;3.83;;;1.40;;
12306;SDS011;6216;51.146;7.008;2022-07-29T03:12:15;4.33;;;1.47;;
12306;SDS011;6216;51.146;7.008;2022-07-29T03:14:45;2.80;;;1.23;;
12306;SDS011;6216;51.146;7.008;2022-07-29T03:17:14;6.67;;;1.60;;
12306;SDS011;6216;51.146;7.008;2022-07-29T03:19:42;4.80;;;1.30;;
12306;SDS011;6216;51.146;7.008;2022-07-29T03:22:11;6.03;;;1.40;;
12306;SDS011;6216;51.146;7.008;2022-07-29T03:24:39;5.67;;;1.37;;
12306;SDS011;6216;51.146;7.008;2022-07-29T03:27:07;3.17;;;1.40;;
12306;SDS011;6216;51.146;7.008;2022-07-29T03:29:35;6.47;;;1.40;;
12306;SDS011;6216;51.146;7.008;2022-07-29T03:32:05;3.40;;;1.30;;
12306;SDS011;6216;51.146;7.008;2022-07-29T03:34:34;4.07;;;1.53;;
12306;SDS011;6216;51.146;7.008;2022-07-29T03:37:03;5.47;;;1.60;;
12306;SDS011;6216;51.146;7.008;2022-07-29T03:39:33;2.93;;;1.23;;
12306;SDS011;6216;51.146;7.008;2022-07-29T03:42:05;5.80;;;1.70;;
12306;SDS011;6216;51.146;7.008;2022-07-29T03:44:35;3.33;;;1.73;;
12306;SDS011;6216;51.146;7.008;2022-07-29T03:47:05;3.43;;;1.50;;
12306;SDS011;6216;51.146;7.008;2022-07-29T03:49:35;4.80;;;1.40;;
12306;SDS011;6216;51.146;7.008;2022-07-29T03:52:04;3.63;;;1.57;;
12306;SDS011;6216;51.146;7.008;2022-07-29T03:54:33;3.07;;;1.50;;
12306;SDS011;6216;51.146;7.008;2022-07-29T03:57:01;5.40;;;1.30;;
12306;SDS011;6216;51.146;7.008;2022-07-29T03:59:30;6.43;;;1.60;;
12306;SDS011;6216;51.146;7.008;2022-07-29T04:02:00;2.80;;;1.40;;
12306;SDS011;6216;51.146;7.008;2022-07-29T04:04:33;5.00;;;1.70;;
12306;SDS011;6216;51.146;7.008;2022-07-29T04:07:02;6.30;;;1.70;;
12306;SDS011;6216;51.146;7.008;2022-07-29T04:09:30;3.93;;;1.60;;
12306;SDS011;6216;51.146;7.008;2022-07-29T04:11:58;2.70;;;1.80;;
12306;SDS011;6216;51.146;7.008;2022-07-29T04:14:29;6.40;;;1.63;;
12306;SDS011;6216;51.146;7.008;2022-07-29T04:16:58;6.03;;;1.77;;
12306;SDS011;6216;51.146;7.008;2022-07-29T04:19:26;4.23;;;1.50;;
12306;SDS011;6216;51.146;7.008;2022-07-29T04:21:55;3.00;;;1.50;;
12306;SDS011;6216;51.146;7.008;2022-07-29T04:24:24;4.87;;;1.80;;
12306;SDS011;6216;51.146;7.008;2022-07-29T04:26:52;3.47;;;1.57;;
12306;SDS011;6216;51.146;7.008;2022-07-29T04:29:20;6.97;;;1.40;;
12306;SDS011;6216;51.146;7.008;2022-07-29T04:31:48;3.70;;;1.70;;
12306;SDS011;6216;51.146;7.008;2022-07-29T04:34:16;6.27;;;2.03;;
12306;SDS011;6216;51.146;7.008;2022-07-29T04:36:45;5.23;;;1.67;;
12306;SDS011;6216;51.146;7.008;2022-07-29T04:39:14;4.40;;;1.40;;
12306;SDS011;6216;51.146;7.008;2022-07-29T04:41:48;5.67;;;1.53;;
12306;SDS011;6216;51.146;7.008;2022-07-29T04:44:20;4.87;;;1.70;;
12306;SDS011;6216;51.146;7.008;2022-07-29T04:46:54;3.73;;;1.60;;
12306;SDS011;6216;51.146;7.008;2022-07-29T04:49:22;8.80;;;1.60;;
12306;SDS011;6216;51.146;7.008;2022-07-29T04:51:50;3.03;;;1.43;;
12306;SDS011;6216;51.146;7.008;2022-07-29T04:54:19;2.80;;;1.67;;
12306;SDS011;6216;51.146;7.008;2022-07-29T04:56:47;5.60;;;1.67;;
12306;SDS011;6216;51.146;7.008;2022-07-29T04:59:15;5.50;;;1.57;;
12306;SDS011;6216;51.146;7.008;2022-07-29T05:01:43;2.80;;;1.33;;
12306;SDS011;6216;51.146;7.008;2022-07-29T05:04:11;4.07;;;1.27;;
12306;SDS011;6216;51.146;7.008;2022-07-29T05:06:39;4.50;;;1.30;;
12306;SDS011;6216;51.146;7.008;2022-07-29T05:09:07;6.90;;;1.87;;
12306;SDS011;6216;51.146;7.008;2022-07-29T05:11:36;7.43;;;1.70;;
12306;SDS011;6216;51.146;7.008;2022-07-29T05:14:04;3.73;;;1.50;;
12306;SDS011;6216;51.146;7.008;2022-07-29T05:16:32;10.53;;;2.07;;
12306;SDS011;6216;51.146;7.008;2022-07-29T05:19:00;7.20;;;1.47;;
12306;SDS011;6216;51.146;7.008;2022-07-29T05:21:27;7.80;;;1.80;;
12306;SDS011;6216;51.146;7.008;2022-07-29T05:23:55;4.97;;;1.47;;
12306;SDS011;6216;51.146;7.008;2022-07-29T05:26:23;3.67;;;1.80;;
12306;SDS011;6216;51.146;7.008;2022-07-29T05:28:52;4.97;;;1.50;;
12306;SDS011;6216;51.146;7.008;2022-07-29T05:31:21;4.23;;;1.63;;
12306;SDS011;6216;51.146;7.008;2022-07-29T05:33:48;4.37;;;1.60;;
12306;SDS011;6216;51.146;7.008;2022-07-29T05:36:16;2.97;;;1.40;;
12306;SDS011;6216;51.146;7.008;2022-07-29T05:38:44;6.53;;;1.30;;
12306;SDS011;6216;51.146;7.008;2022-07-29T05:41:12;2.97;;;1.50;;
12306;SDS011;6216;51.146;7.008;2022-07-29T05:43:40;2.43;;;1.33;;
12306;SDS011;6216;51.146;7.008;2022-07-29T05:46:09;2.70;;;1.40;;
12306;SDS011;6216;51.146;7.008;2022-07-29T05:48:37;3.40;;;1.50;;
12306;SDS011;6216;51.146;7.008;2022-07-29T05:51:05;3.53;;;1.77;;
12306;SDS011;6216;51.146;7.008;2022-07-29T05:53:33;7.27;;;1.53;;
12306;SDS011;6216;51.146;7.008;2022-07-29T05:56:02;5.97;;;1.57;;
12306;SDS011;6216;51.146;7.008;2022-07-29T05:58:31;2.27;;;1.30;;
12306;SDS011;6216;51.146;7.008;2022-07-29T06:00:59;8.13;;;1.60;;
12306;SDS011;6216;51.146;7.008;2022-07-29T06:03:28;4.87;;;1.57;;
12306;SDS011;6216;51.146;7.008;2022-07-29T06:05:56;3.27;;;1.50;;
12306;SDS011;6216;51.146;7.008;2022-07-29T06:08:24;7.70;;;1.70;;
12306;SDS011;6216;51.146;7.008;2022-07-29T06:10:52;4.90;;;1.33;;
12306;SDS011;6216;51.146;7.008;2022-07-29T06:13:20;4.73;;;1.70;;
12306;SDS011;6216;51.146;7.008;2022-07-29T06:15:48;5.47;;;1.40;;
12306;SDS011;6216;51.146;7.008;2022-07-29T06:18:16;4.77;;;1.60;;
12306;SDS011;6216;51.146;7.008;2022-07-29T06:20:45;5.23;;;1.83;;
12306;SDS011;6216;51.146;7.008;2022-07-29T06:23:13;6.93;;;1.77;;
12306;SDS011;6216;51.146;7.008;2022-07-29T06:25:41;4.83;;;1.63;;
12306;SDS011;6216;51.146;7.008;2022-07-29T06:28:09;3.07;;;1.30;;
12306;SDS011;6216;51.146;7.008;2022-07-29T06:30:37;4.70;;;1.67;;
12306;SDS011;6216;51.146;7.008;2022-07-29T06:33:05;3.10;;;1.50;;
12306;SDS011;6216;51.146;7.008;2022-07-29T06:35:33;3.20;;;1.90;;
12306;SDS011;6216;51.146;7.008;2022-07-29T06:38:09;4.13;;;1.73;;
12306;SDS011;6216;51.146;7.008;2022-07-29T06:40:57;4.47;;;1.80;;
12306;SDS011;6216;51.146;7.008;2022-07-29T06:43:30;5.67;;;1.80;;
12306;SDS011;6216;51.146;7.008;2022-07-29T06:46:00;2.07;;;1.33;;
12306;SDS011;6216;51.146;7.008;2022-07-29T06:48:29;5.77;;;2.20;;
12306;SDS011;6216;51.146;7.008;2022-07-29T06:50:57;7.70;;;1.63;;
12306;SDS011;6216;51.146;7.008;2022-07-29T06:53:27;5.80;;;1.90;;
12306;SDS011;6216;51.146;7.008;2022-07-29T06:55:56;6.30;;;1.43;;
12306;SDS011;6216;51.146;7.008;2022-07-29T06:58:24;6.93;;;1.43;;
12306;SDS011;6216;51.146;7.008;2022-07-29T07:00:52;4.53;;;1.50;;
12306;SDS011;6216;51.146;7.008;2022-07-29T07:03:20;3.73;;;1.43;;
12306;SDS011;6216;51.146;7.008;2022-07-29T07:05:48;6.17;;;1.50;;
12306;SDS011;6216;51.146;7.008;2022-07-29T07:08:16;2.90;;;1.10;;
12306;SDS011;6216;51.146;7.008;2022-07-29T07:10:47;3.67;;;1.50;;
12306;SDS011;6216;51.146;7.008;2022-07-29T07:13:15;4.37;;;1.60;;
12306;SDS011;6216;51.146;7.008;2022-07-29T07:15:44;6.53;;;1.70;;
12306;SDS011;6216;51.146;7.008;2022-07-29T07:18:15;4.20;;;1.30;;
12306;SDS011;6216;51.146;7.008;2022-07-29T07:20:43;3.90;;;1.50;;
12306;SDS011;6216;51.146;7.008;2022-07-29T07:23:12;3.27;;;1.90;;
12306;SDS011;6216;51.146;7.008;2022-07-29T07:25:41;5.67;;;2.40;;
12306;SDS011;6216;51.146;7.008;2022-07-29T07:28:10;4.40;;;1.97;;
12306;SDS011;6216;51.146;7.008;2022-07-29T07:30:39;2.97;;;1.57;;
12306;SDS011;6216;51.146;7.008;2022-07-29T07:33:07;2.10;;;1.43;;
12306;SDS011;6216;51.146;7.008;2022-07-29T07:35:35;3.70;;;1.37;;
12306;SDS011;6216;51.146;7.008;2022-07-29T07:38:03;3.57;;;1.43;;
12306;SDS011;6216;51.146;7.008;2022-07-29T07:40:32;4.00;;;1.53;;
12306;SDS011;6216;51.146;7.008;2022-07-29T07:43:00;3.80;;;1.53;;
12306;SDS011;6216;51.146;7.008;2022-07-29T07:45:29;3.83;;;1.30;;
12306;SDS011;6216;51.146;7.008;2022-07-29T07:47:58;2.70;;;1.40;;
12306;SDS011;6216;51.146;7.008;2022-07-29T07:50:27;1.77;;;1.20;;
12306;SDS011;6216;51.146;7.008;2022-07-29T07:52:55;6.40;;;2.10;;
12306;SDS011;6216;51.146;7.008;2022-07-29T07:55:24;4.17;;;1.60;;
12306;SDS011;6216;51.146;7.008;2022-07-29T07:57:53;4.27;;;1.60;;
12306;SDS011;6216;51.146;7.008;2022-07-29T08:00:21;5.07;;;1.70;;
12306;SDS011;6216;51.146;7.008;2022-07-29T08:02:50;4.60;;;1.50;;
12306;SDS011;6216;51.146;7.008;2022-07-29T08:05:19;3.73;;;1.40;;
12306;SDS011;6216;51.146;7.008;2022-07-29T08:07:47;4.53;;;1.57;;
12306;SDS011;6216;51.146;7.008;2022-07-29T08:10:15;3.40;;;1.50;;
12306;SDS011;6216;51.146;7.008;2022-07-29T08:13:05;4.90;;;1.63;;
12306;SDS011;6216;51.146;7.008;2022-07-29T08:15:33;6.47;;;1.60;;
12306;SDS011;6216;51.146;7.008;2022-07-29T08:18:03;3.73;;;2.17;;
12306;SDS011;6216;51.146;7.008;2022-07-29T08:20:34;6.80;;;2.13;;
12306;SDS011;6216;51.146;7.008;2022-07-29T08:23:04;8.00;;;2.00;;
12306;SDS011;6216;51.146;7.008;2022-07-29T08:25:34;4.10;;;2.27;;
12306;SDS011;6216;51.146;7.008;2022-07-29T08:28:05;4.73;;;1.93;;
12306;SDS011;6216;51.146;7.008;2022-07-29T08:30:33;2.93;;;1.90;;
12306;SDS011;6216;51.146;7.008;2022-07-29T08:33:03;3.23;;;1.93;;
12306;SDS011;6216;51.146;7.008;2022-07-29T08:35:30;5.17;;;1.77;;
12306;SDS011;6216;51.146;7.008;2022-07-29T08:38:01;5.83;;;2.07;;
12306;SDS011;6216;51.146;7.008;2022-07-29T08:40:29;5.10;;;2.10;;
12306;SDS011;6216;51.146;7.008;2022-07-29T08:42:58;5.13;;;2.20;;
12306;SDS011;6216;51.146;7.008;2022-07-29T08:45:26;4.43;;;1.90;;
12306;SDS011;6216;51.146;7.008;2022-07-29T08:47:56;3.13;;;1.77;;
12306;SDS011;6216;51.146;7.008;2022-07-29T08:50:25;5.80;;;2.00;;
12306;SDS011;6216;51.146;7.008;2022-07-29T08:52:53;3.77;;;1.87;;
12306;SDS011;6216;51.146;7.008;2022-07-29T08:55:25;4.43;;;2.03;;
12306;SDS011;6216;51.146;7.008;2022-07-29T08:57:53;4.37;;;2.00;;
12306;SDS011;6216;51.146;7.008;2022-07-29T09:00:22;4.17;;;1.40;;
12306;SDS011;6216;51.146;7.008;2022-07-29T09:02:56;4.40;;;1.40;;
12306;SDS011;6216;51.146;7.008;2022-07-29T09:05:27;5.10;;;1.43;;
12306;SDS011;6216;51.146;7.008;2022-07-29T09:07:55;12.63;;;2.00;;
12306;SDS011;6216;51.146;7.008;2022-07-29T09:10:23;5.00;;;2.00;;
12306;SDS011;6216;51.146;7.008;2022-07-29T09:12:51;6.43;;;2.27;;
12306;SDS011;6216;51.146;7.008;2022-07-29T09:15:21;4.53;;;1.77;;
12306;SDS011;6216;51.146;7.008;2022-07-29T09:17:49;3.97;;;2.00;;
12306;SDS011;6216;51.146;7.008;2022-07-29T09:20:18;5.93;;;1.70;;
12306;SDS011;6216;51.146;7.008;2022-07-29T09:22:49;5.77;;;1.67;;
12306;SDS011;6216;51.146;7.008;2022-07-29T09:25:31;2.53;;;1.53;;
12306;SDS011;6216;51.146;7.008;2022-07-29T09:28:05;3.30;;;1.50;;
12306;SDS011;6216;51.146;7.008;2022-07-29T09:30:35;5.50;;;2.10;;
12306;SDS011;6216;51.146;7.008;2022-07-29T09:33:03;5.47;;;1.53;;
12306;SDS011;6216;51.146;7.008;2022-07-29T09:35:31;5.00;;;1.93;;
12306;SDS011;6216;51.146;7.008;2022-07-29T09:38:10;2.73;;;1.63;;
12306;SDS011;6216;51.146;7.008;2022-07-29T09:40:38;1.63;;;1.53;;
12306;SDS011;6216;51.146;7.008;2022-07-29T09:43:10;4.53;;;2.20;;
12306;SDS011;6216;51.146;7.008;2022-07-29T09:45:39;5.60;;;2.10;;
12306;SDS011;6216;51.146;7.008;2022-07-29T09:48:13;5.80;;;2.13;;
12306;SDS011;6216;51.146;7.008;2022-07-29T09:50:44;6.50;;;2.23;;
12306;SDS011;6216;51.146;7.008;2022-07-29T09:53:23;3.23;;;2.37;;
12306;SDS011;6216;51.146;7.008;2022-07-29T09:55:57;9.90;;;3.33;;
12306;SDS011;6216;51.146;7.008;2022-07-29T09:58:25;6.63;;;2.83;;
12306;SDS011;6216;51.146;7.008;2022-07-29T10:00:54;9.20;;;3.40;;
12306;SDS011;6216;51.146;7.008;2022-07-29T10:03:23;6.40;;;2.90;;
12306;SDS011;6216;51.146;7.008;2022-07-29T10:06:04;7.40;;;3.70;;
12306;SDS011;6216;51.146;7.008;2022-07-29T10:08:34;7.77;;;3.30;;
12306;SDS011;6216;51.146;7.008;2022-07-29T10:11:10;8.07;;;3.23;;
12306;SDS011;6216;51.146;7.008;2022-07-29T10:13:39;7.33;;;2.90;;
12306;SDS011;6216;51.146;7.008;2022-07-29T10:16:09;15.03;;;4.00;;
12306;SDS011;6216;51.146;7.008;2022-07-29T10:18:39;5.97;;;3.23;;
12306;SDS011;6216;51.146;7.008;2022-07-29T10:21:08;9.07;;;2.70;;
12306;SDS011;6216;51.146;7.008;2022-07-29T10:23:49;5.50;;;2.90;;
12306;SDS011;6216;51.146;7.008;2022-07-29T10:26:17;9.57;;;3.43;;
12306;SDS011;6216;51.146;7.008;2022-07-29T10:28:46;7.00;;;2.67;;
12306;SDS011;6216;51.146;7.008;2022-07-29T10:31:15;6.87;;;2.53;;
12306;SDS011;6216;51.146;7.008;2022-07-29T10:33:51;5.60;;;2.47;;
12306;SDS011;6216;51.146;7.008;2022-07-29T10:36:32;7.83;;;2.83;;
12306;SDS011;6216;51.146;7.008;2022-07-29T10:39:14;8.97;;;3.00;;
12306;SDS011;6216;51.146;7.008;2022-07-29T10:42:10;7.17;;;2.23;;
12306;SDS011;6216;51.146;7.008;2022-07-29T10:44:45;5.87;;;2.20;;
12306;SDS011;6216;51.146;7.008;2022-07-29T10:47:19;5.70;;;2.23;;
12306;SDS011;6216;51.146;7.008;2022-07-29T10:49:57;5.43;;;2.20;;
12306;SDS011;6216;51.146;7.008;2022-07-29T10:55:36;8.20;;;2.10;;
12306;SDS011;6216;51.146;7.008;2022-07-29T10:58:12;6.13;;;2.73;;
12306;SDS011;6216;51.146;7.008;2022-07-29T11:00:43;8.50;;;2.83;;
12306;SDS011;6216;51.146;7.008;2022-07-29T11:06:16;4.37;;;2.67;;
12306;SDS011;6216;51.146;7.008;2022-07-29T11:12:01;7.37;;;2.97;;
12306;SDS011;6216;51.146;7.008;2022-07-29T11:14:54;10.97;;;3.00;;
12306;SDS011;6216;51.146;7.008;2022-07-29T11:17:23;4.87;;;2.60;;
12306;SDS011;6216;51.146;7.008;2022-07-29T11:19:51;6.27;;;3.13;;
12306;SDS011;6216;51.146;7.008;2022-07-29T11:22:58;4.43;;;2.50;;
12306;SDS011;6216;51.146;7.008;2022-07-29T11:25:28;6.27;;;2.90;;
12306;SDS011;6216;51.146;7.008;2022-07-29T11:28:18;6.97;;;2.47;;
12306;SDS011;6216;51.146;7.008;2022-07-29T11:30:51;6.03;;;2.20;;
12306;SDS011;6216;51.146;7.008;2022-07-29T11:33:26;3.70;;;1.90;;
12306;SDS011;6216;51.146;7.008;2022-07-29T11:36:15;6.67;;;2.70;;
12306;SDS011;6216;51.146;7.008;2022-07-29T11:38:43;6.93;;;2.37;;
12306;SDS011;6216;51.146;7.008;2022-07-29T11:41:20;9.53;;;2.57;;
12306;SDS011;6216;51.146;7.008;2022-07-29T11:43:54;5.43;;;2.10;;
12306;SDS011;6216;51.146;7.008;2022-07-29T11:46:43;5.53;;;2.33;;
12306;SDS011;6216;51.146;7.008;2022-07-29T11:49:12;9.43;;;2.13;;
12306;SDS011;6216;51.146;7.008;2022-07-29T11:51:58;3.43;;;2.03;;
12306;SDS011;6216;51.146;7.008;2022-07-29T11:54:30;4.00;;;2.27;;
12306;SDS011;6216;51.146;7.008;2022-07-29T11:57:19;5.07;;;2.80;;
12306;SDS011;6216;51.146;7.008;2022-07-29T11:59:49;4.00;;;2.20;;
12306;SDS011;6216;51.146;7.008;2022-07-29T12:02:16;5.07;;;2.50;;
12306;SDS011;6216;51.146;7.008;2022-07-29T12:05:03;4.87;;;2.50;;
12306;SDS011;6216;51.146;7.008;2022-07-29T12:07:36;4.60;;;2.37;;
12306;SDS011;6216;51.146;7.008;2022-07-29T12:10:10;5.70;;;2.53;;
12306;SDS011;6216;51.146;7.008;2022-07-29T12:12:54;4.83;;;2.47;;
12306;SDS011;6216;51.146;7.008;2022-07-29T12:15:25;5.83;;;2.60;;
12306;SDS011;6216;51.146;7.008;2022-07-29T12:18:12;5.33;;;2.20;;
12306;SDS011;6216;51.146;7.008;2022-07-29T12:20:44;3.47;;;2.10;;
12306;SDS011;6216;51.146;7.008;2022-07-29T12:23:12;3.47;;;2.27;;
12306;SDS011;6216;51.146;7.008;2022-07-29T12:25:44;3.87;;;2.00;;
12306;SDS011;6216;51.146;7.008;2022-07-29T12:28:15;4.50;;;2.13;;
12306;SDS011;6216;51.146;7.008;2022-07-29T12:30:54;5.10;;;1.93;;
12306;SDS011;6216;51.146;7.008;2022-07-29T12:33:23;4.37;;;2.40;;
12306;SDS011;6216;51.146;7.008;2022-07-29T12:35:53;4.63;;;2.20;;
12306;SDS011;6216;51.146;7.008;2022-07-29T12:38:33;4.67;;;2.30;;
12306;SDS011;6216;51.146;7.008;2022-07-29T12:41:02;4.17;;;2.47;;
12306;SDS011;6216;51.146;7.008;2022-07-29T12:43:30;4.13;;;1.90;;
12306;SDS011;6216;51.146;7.008;2022-07-29T12:46:11;4.10;;;1.87;;
12306;SDS011;6216;51.146;7.008;2022-07-29T12:48:40;3.73;;;2.23;;
12306;SDS011;6216;51.146;7.008;2022-07-29T12:51:09;3.13;;;2.00;;
12306;SDS011;6216;51.146;7.008;2022-07-29T12:53:40;5.10;;;1.70;;
12306;SDS011;6216;51.146;7.008;2022-07-29T12:56:14;5.33;;;2.10;;
12306;SDS011;6216;51.146;7.008;2022-07-29T12:59:10;5.80;;;2.00;;
12306;SDS011;6216;51.146;7.008;2022-07-29T13:01:40;4.27;;;2.00;;
12306;SDS011;6216;51.146;7.008;2022-07-29T13:04:09;4.27;;;2.03;;
12306;SDS011;6216;51.146;7.008;2022-07-29T13:06:37;4.23;;;1.67;;
12306;SDS011;6216;51.146;7.008;2022-07-29T13:09:08;4.33;;;1.70;;
12306;SDS011;6216;51.146;7.008;2022-07-29T13:11:38;3.43;;;1.70;;
12306;SDS011;6216;51.146;7.008;2022-07-29T13:17:04;6.23;;;1.60;;
12306;SDS011;6216;51.146;7.008;2022-07-29T13:19:34;2.10;;;1.63;;
12306;SDS011;6216;51.146;7.008;2022-07-29T13:22:03;6.77;;;1.70;;
12306;SDS011;6216;51.146;7.008;2022-07-29T13:24:31;3.63;;;2.00;;
12306;SDS011;6216;51.146;7.008;2022-07-29T13:26:59;3.60;;;1.67;;
12306;SDS011;6216;51.146;7.008;2022-07-29T13:29:31;3.00;;;1.60;;
12306;SDS011;6216;51.146;7.008;2022-07-29T13:31:59;3.83;;;2.20;;
12306;SDS011;6216;51.146;7.008;2022-07-29T13:34:28;3.40;;;2.00;;
12306;SDS011;6216;51.146;7.008;2022-07-29T13:36:56;6.03;;;2.10;;
12306;SDS011;6216;51.146;7.008;2022-07-29T13:39:24;5.83;;;2.37;;
12306;SDS011;6216;51.146;7.008;2022-07-29T13:41:51;5.63;;;2.40;;
12306;SDS011;6216;51.146;7.008;2022-07-29T13:44:21;5.83;;;2.33;;
12306;SDS011;6216;51.146;7.008;2022-07-29T13:46:49;3.83;;;2.27;;
12306;SDS011;6216;51.146;7.008;2022-07-29T13:49:17;3.43;;;2.23;;
12306;SDS011;6216;51.146;7.008;2022-07-29T13:51:46;3.00;;;1.93;;
12306;SDS011;6216;51.146;7.008;2022-07-29T13:54:14;5.13;;;2.37;;
12306;SDS011;6216;51.146;7.008;2022-07-29T13:56:42;2.50;;;2.20;;
12306;SDS011;6216;51.146;7.008;2022-07-29T13:59:11;6.20;;;2.33;;
12306;SDS011;6216;51.146;7.008;2022-07-29T14:01:39;4.97;;;2.70;;
12306;SDS011;6216;51.146;7.008;2022-07-29T14:04:08;6.63;;;2.40;;
12306;SDS011;6216;51.146;7.008;2022-07-29T14:06:37;4.43;;;2.57;;
12306;SDS011;6216;51.146;7.008;2022-07-29T14:09:07;8.00;;;2.40;;
12306;SDS011;6216;51.146;7.008;2022-07-29T14:11:35;3.23;;;2.27;;
12306;SDS011;6216;51.146;7.008;2022-07-29T14:14:04;4.30;;;2.17;;
12306;SDS011;6216;51.146;7.008;2022-07-29T14:16:32;8.50;;;2.93;;
12306;SDS011;6216;51.146;7.008;2022-07-29T14:19:07;4.47;;;2.43;;
12306;SDS011;6216;51.146;7.008;2022-07-29T14:21:35;5.37;;;2.03;;
12306;SDS011;6216;51.146;7.008;2022-07-29T14:24:03;3.17;;;2.00;;
12306;SDS011;6216;51.146;7.008;2022-07-29T14:26:47;4.70;;;2.27;;
12306;SDS011;6216;51.146;7.008;2022-07-29T14:29:15;4.97;;;2.13;;
12306;SDS011;6216;51.146;7.008;2022-07-29T14:31:43;5.30;;;2.30;;
12306;SDS011;6216;51.146;7.008;2022-07-29T14:34:11;3.67;;;2.20;;
12306;SDS011;6216;51.146;7.008;2022-07-29T14:36:39;4.53;;;2.07;;
12306;SDS011;6216;51.146;7.008;2022-07-29T14:39:07;3.40;;;2.07;;
12306;SDS011;6216;51.146;7.008;2022-07-29T14:41:35;4.00;;;2.10;;
12306;SDS011;6216;51.146;7.008;2022-07-29T14:44:04;4.33;;;1.83;;
12306;SDS011;6216;51.146;7.008;2022-07-29T14:46:32;4.13;;;1.97;;
12306;SDS011;6216;51.146;7.008;2022-07-29T14:49:00;4.13;;;2.03;;
12306;SDS011;6216;51.146;7.008;2022-07-29T14:51:28;4.30;;;1.73;;
12306;SDS011;6216;51.146;7.008;2022-07-29T14:53:57;2.70;;;1.90;;
12306;SDS011;6216;51.146;7.008;2022-07-29T14:56:25;5.97;;;2.10;;
12306;SDS011;6216;51.146;7.008;2022-07-29T14:59:13;4.17;;;2.07;;
12306;SDS011;6216;51.146;7.008;2022-07-29T15:01:41;2.60;;;2.00;;
12306;SDS011;6216;51.146;7.008;2022-07-29T15:04:09;4.30;;;2.30;;
12306;SDS011;6216;51.146;7.008;2022-07-29T15:06:37;5.43;;;2.00;;
12306;SDS011;6216;51.146;7.008;2022-07-29T15:09:04;4.70;;;2.10;;
12306;SDS011;6216;51.146;7.008;2022-07-29T15:11:32;4.73;;;2.37;;
12306;SDS011;6216;51.146;7.008;2022-07-29T15:14:04;4.37;;;1.87;;
12306;SDS011;6216;51.146;7.008;2022-07-29T15:16:34;5.23;;;2.50;;
12306;SDS011;6216;51.146;7.008;2022-07-29T15:19:03;5.53;;;2.13;;
12306;SDS011;6216;51.146;7.008;2022-07-29T15:21:31;3.97;;;2.27;;
12306;SDS011;6216;51.146;7.008;2022-07-29T15:23:59;5.97;;;1.87;;
12306;SDS011;6216;51.146;7.008;2022-07-29T15:26:27;4.17;;;1.93;;
12306;SDS011;6216;51.146;7.008;2022-07-29T15:28:55;3.23;;;1.80;;
12306;SDS011;6216;51.146;7.008;2022-07-29T15:31:23;3.87;;;2.10;;
12306;SDS011;6216;51.146;7.008;2022-07-29T15:33:52;4.17;;;1.90;;
12306;SDS011;6216;51.146;7.008;2022-07-29T15:36:25;3.87;;;2.20;;